Englesville, Pennsylvania
Current Conditions -  °F | °C
As of 5:54 PM on Tuesday 27 Jan 2015 (Local Time) from KPTW Reporting Station
Clear Clear  
Wind Chill: -7°   Ceiling: Unl
Heat Index: -2°   Visibility: 10mi
Dew Point: -14°   Wind: 10mph
Humidity: 40%   Direction: 320°NW
Pressure: 29.76"   Gusts: NA
Location:  40.3481°N, 75.6818°W
Report Text: KPTW 272254Z AUTO 32009KT 10SM CLR M02/M14 A2976 RMK AO2 SLP080 T10171139
Loading
Personal Weather Stations






























Interactive Weather Map New forecast layout! Learn more

10-Day Weather Forecast

Advertisements
Track Severe Weather on mobile